Time;durP1;ratioP1;P1;durP2;ratioP2;P2;SDS_P1;SDS_P2;PMS_P1;PMS_P2;Temp;Humidity;BMP_temperature;BMP_pressure;BME280_temperature;BME280_humidity;BME280_pressure;Samples;Min_cycle;Max_cycle;Signal;HPM_P1;HPM_P2
2022/07/31 00:00:11;;;;;;;10.97;9.97;;;;;;;-146.72;100.00;64895.28;5074029;28;20600;-75
2022/07/31 00:02:38;;;;;;;11.33;10.53;;;;;;;-146.72;100.00;64895.28;5091089;28;20421;-74
2022/07/31 00:05:05;;;;;;;10.20;9.50;;;;;;;-146.72;100.00;64895.28;5091871;28;20980;-74
2022/07/31 00:07:31;;;;;;;9.10;8.40;;;;;;;-146.72;100.00;64895.28;5090678;28;20457;-74
2022/07/31 00:09:58;;;;;;;8.30;7.60;;;;;;;-146.72;100.00;64895.28;5089419;28;20502;-74
2022/07/31 00:12:25;;;;;;;9.40;8.70;;;;;;;-146.72;100.00;64895.28;5071540;28;20476;-74
2022/07/31 00:14:52;;;;;;;8.63;7.93;;;;;;;-146.72;100.00;64895.28;5070246;28;20460;-74
2022/07/31 00:17:19;;;;;;;9.87;8.93;;;;;;;-146.72;100.00;64895.28;5070237;28;20483;-74
2022/07/31 00:19:46;;;;;;;8.67;8.07;;;;;;;-146.72;100.00;64895.28;5086718;28;20452;-74
2022/07/31 00:22:12;;;;;;;8.67;7.77;;;;;;;-146.72;100.00;64895.28;5069969;28;20921;-75
2022/07/31 00:24:39;;;;;;;8.67;7.97;;;;;;;-146.72;100.00;64895.28;5069848;28;20467;-74
2022/07/31 00:27:06;;;;;;;10.10;9.40;;;;;;;-146.72;100.00;64895.28;5077459;28;20579;-74
2022/07/31 00:29:33;;;;;;;9.53;8.83;;;;;;;-146.72;100.00;64895.28;5065779;28;20456;-74
2022/07/31 00:31:59;;;;;;;8.83;8.13;;;;;;;-146.72;100.00;64895.28;5069574;28;20483;-74
2022/07/31 00:34:26;;;;;;;10.93;9.90;;;;;;;-146.72;100.00;64895.28;5057495;28;20443;-74
2022/07/31 00:36:53;;;;;;;9.37;8.60;;;;;;;-146.72;100.00;64895.28;5052778;28;20432;-74
2022/07/31 00:39:20;;;;;;;10.17;9.37;;;;;;;-146.72;100.00;64895.28;5069410;28;20498;-74
2022/07/31 00:41:48;;;;;;;10.70;9.80;;;;;;;-146.72;100.00;64895.28;5069597;28;20484;-74
2022/07/31 00:44:15;;;;;;;10.13;9.20;;;;;;;-146.72;100.00;64895.28;5069565;28;20433;-74
2022/07/31 00:46:44;;;;;;;10.60;9.70;;;;;;;-146.72;100.00;64895.28;5070419;28;20993;-74
2022/07/31 00:49:10;;;;;;;10.27;9.37;;;;;;;-146.72;100.00;64895.28;5068878;28;20472;-74
2022/07/31 00:51:39;;;;;;;9.90;9.10;;;;;;;-146.72;100.00;64895.28;5069005;28;20486;-74
2022/07/31 00:54:07;;;;;;;8.27;7.67;;;;;;;-146.72;100.00;64895.28;5068994;28;20440;-74
2022/07/31 00:56:34;;;;;;;8.70;7.90;;;;;;;-146.72;100.00;64895.28;5068995;28;20439;-74
2022/07/31 00:59:02;;;;;;;8.90;8.20;;;;;;;-146.72;100.00;64895.28;5069187;28;20436;-74
2022/07/31 01:01:29;;;;;;;8.33;7.60;;;;;;;-146.72;100.00;64895.28;5072702;28;20880;-74
2022/07/31 01:03:57;;;;;;;7.77;7.17;;;;;;;-146.72;100.00;64895.28;5073764;28;20885;-74
2022/07/31 01:06:23;;;;;;;8.53;7.93;;;;;;;-146.72;100.00;64895.28;5072421;28;20871;-74
2022/07/31 01:08:50;;;;;;;9.60;8.73;;;;;;;-146.72;100.00;64895.28;5055842;28;20527;-74
2022/07/31 01:11:26;;;;;;;8.67;8.03;;;;;;;-146.72;100.00;64895.28;5074212;28;20543;-75
2022/07/31 01:13:58;;;;;;;8.50;7.80;;;;;;;-146.72;100.00;64895.28;5089427;28;20471;-74
2022/07/31 01:16:29;;;;;;;8.90;8.00;;;;;;;-146.72;100.00;64895.28;5054210;28;20511;-75
2022/07/31 01:18:58;;;;;;;9.20;8.50;;;;;;;-146.72;100.00;64895.28;5072606;28;20443;-75
2022/07/31 01:21:41;;;;;;;8.13;7.50;;;;;;;-146.72;100.00;64895.28;5072268;28;20986;-74
2022/07/31 01:24:13;;;;;;;7.33;6.63;;;;;;;-146.72;100.00;64895.28;5089103;28;21005;-74
2022/07/31 01:27:30;;;;;;;8.07;7.47;;;;;;;-146.72;100.00;64895.28;5049815;28;20475;-75
2022/07/31 01:30:16;;;;;;;8.57;7.87;;;;;;;-146.72;100.00;64895.28;5058264;28;20451;-74
2022/07/31 01:32:48;;;;;;;7.37;6.80;;;;;;;-146.72;100.00;64895.28;5088999;28;20815;-75
2022/07/31 01:35:27;;;;;;;8.77;8.10;;;;;;;-146.72;100.00;64895.28;5068079;28;20854;-74
2022/07/31 01:38:00;;;;;;;8.00;7.30;;;;;;;-146.72;100.00;64895.28;5088819;28;20439;-74
2022/07/31 01:40:42;;;;;;;8.07;7.47;;;;;;;-146.72;100.00;64895.28;5079489;28;20453;-74
2022/07/31 01:43:13;;;;;;;8.03;7.23;;;;;;;-146.72;100.00;64895.28;5055408;28;20561;-74
2022/07/31 01:45:42;;;;;;;7.60;6.93;;;;;;;-146.72;100.00;64895.28;5088606;28;20442;-75
2022/07/31 01:48:13;;;;;;;8.73;7.77;;;;;;;-146.72;100.00;64895.28;5071808;28;20440;-74
2022/07/31 01:50:43;;;;;;;7.63;7.03;;;;;;;-146.72;100.00;64895.28;5054935;28;20461;-74
2022/07/31 01:53:20;;;;;;;7.33;6.73;;;;;;;-146.72;100.00;64895.28;5071778;28;20825;-75
2022/07/31 01:55:51;;;;;;;7.67;6.97;;;;;;;-146.72;100.00;64895.28;5071603;28;20467;-74
2022/07/31 01:58:36;;;;;;;6.37;5.97;;;;;;;-146.72;100.00;64895.28;5071430;28;20989;-75
2022/07/31 02:01:09;;;;;;;7.63;7.03;;;;;;;-146.72;100.00;64895.28;5088371;28;20563;-74
2022/07/31 02:03:40;;;;;;;8.10;7.40;;;;;;;-146.72;100.00;64895.28;5055135;28;20439;-74
2022/07/31 02:06:17;;;;;;;8.47;7.63;;;;;;;-146.72;100.00;64895.28;5071263;28;20473;-75
2022/07/31 02:08:50;;;;;;;7.63;7.00;;;;;;;-146.72;100.00;64895.28;5071136;28;20447;-75
2022/07/31 02:11:19;;;;;;;8.23;7.63;;;;;;;-146.72;100.00;64895.28;5050601;28;20462;-75
2022/07/31 02:13:48;;;;;;;7.83;6.47;;;;;;;-146.72;100.00;64895.28;5090975;28;20791;-74
2022/07/31 02:16:17;;;;;;;7.83;7.23;;;;;;;-146.72;100.00;64895.28;5074565;28;20440;-74
2022/07/31 02:18:52;;;;;;;8.27;7.60;;;;;;;-146.72;100.00;64895.28;5074675;28;20520;-75
2022/07/31 02:21:24;;;;;;;7.57;6.97;;;;;;;-146.72;100.00;64895.28;5091171;28;20431;-75
2022/07/31 02:23:52;;;;;;;6.93;6.43;;;;;;;-146.72;100.00;64895.28;5091216;28;20451;-75
2022/07/31 02:26:20;;;;;;;7.80;7.10;;;;;;;-146.72;100.00;64895.28;5085391;28;20500;-75
2022/07/31 02:28:49;;;;;;;7.67;7.13;;;;;;;-146.72;100.00;64895.28;5044333;28;20530;-75
2022/07/31 02:31:17;;;;;;;9.20;7.33;;;;;;;-146.72;100.00;64895.28;5070692;28;20485;-74
2022/07/31 02:33:47;;;;;;;9.87;8.93;;;;;;;-146.72;100.00;64895.28;5073933;28;20436;-75
2022/07/31 02:36:19;;;;;;;10.83;9.93;;;;;;;-146.72;100.00;64895.28;5055730;28;20521;-75
2022/07/31 02:38:48;;;;;;;20.63;12.57;;;;;;;-146.72;100.00;64895.28;5074380;28;20431;-75
2022/07/31 02:41:16;;;;;;;14.80;13.30;;;;;;;-146.72;100.00;64895.28;5090777;28;20487;-74
2022/07/31 02:43:44;;;;;;;22.40;13.77;;;;;;;-146.72;100.00;64895.28;5091106;28;20990;-75
2022/07/31 02:46:22;;;;;;;14.90;13.30;;;;;;;-146.72;100.00;64895.28;5075558;28;20471;-74
2022/07/31 02:48:50;;;;;;;16.67;11.93;;;;;;;-146.72;100.00;64895.28;5074207;28;20489;-74
2022/07/31 02:51:19;;;;;;;12.93;11.40;;;;;;;-146.72;100.00;64895.28;5090610;28;20435;-75
2022/07/31 02:53:45;;;;;;;24.20;11.70;;;;;;;-146.72;100.00;64895.28;5090579;28;20866;-74
2022/07/31 02:56:14;;;;;;;12.00;10.90;;;;;;;-146.72;100.00;64895.28;5073832;28;20533;-75
2022/07/31 02:58:42;;;;;;;13.10;11.47;;;;;;;-146.72;100.00;64895.28;5058127;28;20446;-75
2022/07/31 03:01:20;;;;;;;11.83;10.63;;;;;;;-146.72;100.00;64895.28;5084630;28;20448;-74
2022/07/31 03:03:47;;;;;;;11.10;9.90;;;;;;;-146.72;100.00;64895.28;5085079;28;20515;-74
2022/07/31 03:06:15;;;;;;;13.20;9.73;;;;;;;-146.72;100.00;64895.28;5086023;28;20463;-74
2022/07/31 03:08:41;;;;;;;10.23;9.27;;;;;;;-146.72;100.00;64895.28;5066630;28;20437;-74
2022/07/31 03:11:10;;;;;;;9.67;8.57;;;;;;;-146.72;100.00;64895.28;5066136;28;20453;-75
2022/07/31 03:13:38;;;;;;;9.57;8.70;;;;;;;-146.72;100.00;64895.28;5083876;28;20440;-74
2022/07/31 03:16:07;;;;;;;11.70;8.17;;;;;;;-146.72;100.00;64895.28;5085477;28;20448;-74
2022/07/31 03:18:35;;;;;;;9.47;8.53;;;;;;;-146.72;100.00;64895.28;5086293;28;20819;-74
2022/07/31 03:21:03;;;;;;;9.97;9.07;;;;;;;-146.72;100.00;64895.28;5077571;28;20849;-75
2022/07/31 03:23:35;;;;;;;10.83;9.50;;;;;;;-146.72;100.00;64895.28;5053223;28;20428;-74
2022/07/31 03:26:17;;;;;;;12.00;10.70;;;;;;;-146.72;100.00;64895.28;5069865;28;20472;-74
2022/07/31 03:28:44;;;;;;;9.90;9.00;;;;;;;-146.72;100.00;64895.28;5086995;28;20498;-75
2022/07/31 03:31:11;;;;;;;9.27;8.33;;;;;;;-146.72;100.00;64895.28;5069857;28;20522;-75
2022/07/31 03:33:38;;;;;;;9.37;8.43;;;;;;;-146.72;100.00;64895.28;5071876;28;20977;-75
2022/07/31 03:36:05;;;;;;;10.43;9.03;;;;;;;-146.72;100.00;64895.28;5056292;28;20444;-75
2022/07/31 03:38:32;;;;;;;9.60;8.60;;;;;;;-146.72;100.00;64895.28;5053264;28;20474;-75
2022/07/31 03:41:30;;;;;;;9.70;8.37;;;;;;;-146.72;100.00;64895.28;5073559;28;20464;-74
2022/07/31 03:43:57;;;;;;;12.27;10.00;;;;;;;-146.72;100.00;64895.28;5086504;28;20958;-74
2022/07/31 03:46:24;;;;;;;13.77;9.70;;;;;;;-146.72;100.00;64895.28;5061150;28;20838;-75
2022/07/31 03:48:51;;;;;;;11.10;9.03;;;;;;;-146.72;100.00;64895.28;5080836;28;20526;-75
2022/07/31 03:51:20;;;;;;;12.10;10.03;;;;;;;-146.72;100.00;64895.28;5089829;28;20446;-75
2022/07/31 03:53:48;;;;;;;23.97;10.27;;;;;;;-146.72;100.00;64895.28;5073073;28;20967;-75
2022/07/31 03:56:49;;;;;;;11.33;9.90;;;;;;;-146.72;100.00;64895.28;5089693;28;20439;-75
2022/07/31 03:59:18;;;;;;;10.17;8.90;;;;;;;-146.72;100.00;64895.28;5073289;28;20516;-75
2022/07/31 04:01:47;;;;;;;10.87;8.90;;;;;;;-146.72;100.00;64895.28;5089622;28;20534;-75
2022/07/31 04:04:59;;;;;;;16.77;9.80;;;;;;;-146.72;100.00;64895.28;5086796;28;20447;-74
2022/07/31 04:07:26;;;;;;;14.00;9.40;;;;;;;-146.72;100.00;64895.28;5089702;28;20558;-74
2022/07/31 04:09:53;;;;;;;27.03;9.40;;;;;;;-146.72;100.00;64895.28;5089513;28;20463;-74
2022/07/31 04:12:20;;;;;;;11.20;8.20;;;;;;;-146.72;100.00;64895.28;5090973;28;20493;-74
2022/07/31 04:14:47;;;;;;;12.53;10.17;;;;;;;-146.72;100.00;64895.28;5089554;28;20530;-74
2022/07/31 04:17:13;;;;;;;15.33;8.50;;;;;;;-146.72;100.00;64895.28;5089408;28;20443;-74
2022/07/31 04:19:40;;;;;;;9.83;8.83;;;;;;;-146.72;100.00;64895.28;5089320;28;20500;-74
2022/07/31 04:22:07;;;;;;;27.50;8.67;;;;;;;-146.72;100.00;64895.28;5090795;28;20420;-75
2022/07/31 04:24:35;;;;;;;12.73;9.47;;;;;;;-146.72;100.00;64895.28;5089376;28;20972;-75
2022/07/31 04:27:26;;;;;;;20.03;9.73;;;;;;;-146.72;100.00;64895.28;5064944;28;20461;-74
2022/07/31 04:29:54;;;;;;;14.03;8.80;;;;;;;-146.72;100.00;64895.28;5068085;28;20968;-74
2022/07/31 04:32:22;;;;;;;33.77;10.50;;;;;;;-146.72;100.00;64895.28;5052594;28;20432;-75
2022/07/31 04:34:53;;;;;;;12.30;10.10;;;;;;;-146.72;100.00;64895.28;5076891;28;20441;-75
2022/07/31 04:37:20;;;;;;;11.33;10.33;;;;;;;-146.72;100.00;64895.28;5056559;28;20439;-75
2022/07/31 04:39:47;;;;;;;18.53;10.67;;;;;;;-146.72;100.00;64895.28;5073008;28;20840;-75
2022/07/31 04:42:14;;;;;;;25.43;10.77;;;;;;;-146.72;100.00;64895.28;5074272;28;20428;-75
2022/07/31 04:44:41;;;;;;;12.77;11.47;;;;;;;-146.72;100.00;64895.28;5089854;28;20795;-75
2022/07/31 04:47:07;;;;;;;14.00;9.87;;;;;;;-146.72;100.00;64895.28;5072623;28;20545;-74
2022/07/31 04:49:40;;;;;;;11.90;10.20;;;;;;;-146.72;100.00;64895.28;5089654;28;20479;-74
2022/07/31 04:52:07;;;;;;;20.10;11.20;;;;;;;-146.72;100.00;64895.28;5056209;28;20455;-74
2022/07/31 04:54:36;;;;;;;11.83;10.63;;;;;;;-146.72;100.00;64895.28;5056372;28;20432;-74
2022/07/31 04:57:03;;;;;;;19.03;10.47;;;;;;;-146.72;100.00;64895.28;5072636;28;20443;-74
2022/07/31 04:59:31;;;;;;;12.83;10.40;;;;;;;-146.72;100.00;64895.28;5072485;28;20472;-74
2022/07/31 05:02:18;;;;;;;13.43;11.20;;;;;;;-146.72;100.00;64895.28;5072575;28;20883;-75
2022/07/31 05:04:45;;;;;;;20.43;12.77;;;;;;;-146.72;100.00;64895.28;5072705;28;20840;-74
2022/07/31 05:07:22;;;;;;;15.17;13.10;;;;;;;-146.72;100.00;64895.28;5072423;28;20514;-75
2022/07/31 05:09:49;;;;;;;32.40;14.30;;;;;;;-146.72;100.00;64895.28;5072335;28;20448;-74
2022/07/31 05:12:16;;;;;;;12.63;11.43;;;;;;;-146.72;100.00;64895.28;5072378;28;20940;-75
2022/07/31 05:14:43;;;;;;;19.50;12.33;;;;;;;-146.72;100.00;64895.28;5072277;28;20514;-75
2022/07/31 05:17:09;;;;;;;14.83;13.63;;;;;;;-146.72;100.00;64895.28;5055655;28;20483;-74
2022/07/31 05:19:51;;;;;;;13.97;12.77;;;;;;;-146.72;100.00;64895.28;5072208;28;21036;-75
2022/07/31 05:22:44;;;;;;;15.27;13.03;;;;;;;-146.72;100.00;64895.28;5057439;28;20444;-75
2022/07/31 05:25:28;;;;;;;14.37;13.13;;;;;;;-146.72;100.00;64895.28;5058074;28;20498;-75
2022/07/31 05:27:55;;;;;;;14.00;12.70;;;;;;;-146.72;100.00;64895.28;5071899;28;20448;-75
2022/07/31 05:30:22;;;;;;;14.17;12.70;;;;;;;-146.72;100.00;64895.28;5055428;28;20474;-75
2022/07/31 05:32:57;;;;;;;14.63;13.30;;;;;;;-146.72;100.00;64895.28;5076022;28;20466;-75
2022/07/31 05:35:24;;;;;;;15.10;12.90;;;;;;;-146.72;100.00;64895.28;5081194;28;20443;-75
2022/07/31 05:37:51;;;;;;;13.40;12.10;;;;;;;-146.72;100.00;64895.28;5070843;28;20460;-74
2022/07/31 05:40:23;;;;;;;13.00;11.83;;;;;;;-146.72;100.00;64895.28;5074986;28;20474;-75
2022/07/31 05:43:25;;;;;;;13.67;12.23;;;;;;;-146.72;100.00;64895.28;5050846;28;20436;-75
2022/07/31 05:46:12;;;;;;;13.83;12.63;;;;;;;-146.72;100.00;64895.28;5086190;28;20434;-75
2022/07/31 05:48:40;;;;;;;13.40;12.20;;;;;;;-146.72;100.00;64895.28;5091721;28;20466;-75
2022/07/31 05:51:09;;;;;;;12.40;11.30;;;;;;;-146.72;100.00;64895.28;5075563;28;20477;-75
2022/07/31 05:53:36;;;;;;;14.30;12.83;;;;;;;-146.72;100.00;64895.28;5091806;28;20459;-74
2022/07/31 05:56:21;;;;;;;14.93;13.60;;;;;;;-146.72;100.00;64895.28;5093453;28;20419;-75
2022/07/31 05:58:50;;;;;;;14.90;13.60;;;;;;;-146.72;100.00;64895.28;5075304;28;20462;-75
2022/07/31 06:01:17;;;;;;;15.10;13.70;;;;;;;-146.72;100.00;64895.28;5074929;28;20456;-75
2022/07/31 06:03:43;;;;;;;14.77;13.47;;;;;;;-146.72;100.00;64895.28;5091628;28;20994;-75
2022/07/31 06:06:30;;;;;;;13.73;12.53;;;;;;;-146.72;100.00;64895.28;5091666;28;20520;-75
2022/07/31 06:08:56;;;;;;;15.03;13.80;;;;;;;-146.72;100.00;64895.28;5074610;28;20478;-75
2022/07/31 06:11:33;;;;;;;14.40;13.20;;;;;;;-146.72;100.00;64895.28;5091779;28;20567;-75
2022/07/31 06:14:00;;;;;;;14.23;12.93;;;;;;;-146.72;100.00;64895.28;5091764;28;20462;-75
2022/07/31 06:16:35;;;;;;;14.50;13.30;;;;;;;-146.72;100.00;64895.28;5075602;28;20458;-75
2022/07/31 06:19:02;;;;;;;14.00;12.70;;;;;;;-146.72;100.00;64895.28;5092654;28;21001;-75
2022/07/31 06:21:29;;;;;;;15.17;13.80;;;;;;;-146.72;100.00;64895.28;5091329;28;20451;-75
2022/07/31 06:23:56;;;;;;;13.17;11.97;;;;;;;-146.72;100.00;64895.28;5074874;28;20431;-75
2022/07/31 06:26:34;;;;;;;14.43;13.07;;;;;;;-146.72;100.00;64895.28;5081160;28;20441;-75
2022/07/31 06:29:01;;;;;;;15.07;13.57;;;;;;;-146.72;100.00;64895.28;5050877;28;20473;-75
2022/07/31 06:31:28;;;;;;;13.30;11.90;;;;;;;-146.72;100.00;64895.28;5050945;28;20445;-75
2022/07/31 06:33:56;;;;;;;13.77;12.67;;;;;;;-146.72;100.00;64895.28;5075372;28;20447;-75
2022/07/31 06:36:28;;;;;;;15.00;13.70;;;;;;;-146.72;100.00;64895.28;5051146;28;20476;-75
2022/07/31 06:38:56;;;;;;;13.83;12.63;;;;;;;-146.72;100.00;64895.28;5070690;28;20940;-75
2022/07/31 06:41:43;;;;;;;12.93;11.93;;;;;;;-146.72;100.00;64895.28;5087225;28;20517;-75
2022/07/31 06:44:30;;;;;;;13.93;12.80;;;;;;;-146.72;100.00;64895.28;5072306;28;20847;-74
2022/07/31 06:47:16;;;;;;;13.33;12.20;;;;;;;-146.72;100.00;64895.28;5071088;28;20460;-75
2022/07/31 06:49:48;;;;;;;13.83;12.67;;;;;;;-146.72;100.00;64895.28;5070693;28;20459;-75
2022/07/31 06:52:16;;;;;;;15.60;14.30;;;;;;;-146.72;100.00;64895.28;5070526;28;20432;-75
2022/07/31 06:54:43;;;;;;;15.47;14.27;;;;;;;-146.72;100.00;64895.28;5087445;28;20468;-75
2022/07/31 06:57:11;;;;;;;16.10;14.70;;;;;;;-146.72;100.00;64895.28;5069920;28;20432;-75
2022/07/31 06:59:38;;;;;;;14.40;13.10;;;;;;;-146.72;100.00;64895.28;5070411;28;20880;-74
2022/07/31 07:02:07;;;;;;;13.30;12.10;;;;;;;-146.72;100.00;64895.28;5060295;28;20431;-75
2022/07/31 07:04:34;;;;;;;15.20;13.90;;;;;;;-146.72;100.00;64895.28;5073901;28;20462;-75
2022/07/31 07:07:21;;;;;;;14.03;12.83;;;;;;;-146.72;100.00;64895.28;5056476;28;20913;-75
2022/07/31 07:09:49;;;;;;;17.20;15.77;;;;;;;-146.72;100.00;64895.28;5070096;28;20460;-75
2022/07/31 07:12:33;;;;;;;15.07;13.80;;;;;;;-146.72;100.00;64895.28;5070239;28;20529;-75
2022/07/31 07:15:00;;;;;;;16.50;15.00;;;;;;;-146.72;100.00;64895.28;5070013;28;20997;-75
2022/07/31 07:17:28;;;;;;;14.73;13.53;;;;;;;-146.72;100.00;64895.28;5070339;28;20493;-75
2022/07/31 07:19:55;;;;;;;16.43;15.03;;;;;;;-146.72;100.00;64895.28;5069937;28;20461;-75
2022/07/31 07:22:22;;;;;;;15.27;13.97;;;;;;;-146.72;100.00;64895.28;5070044;28;20440;-75
2022/07/31 07:24:59;;;;;;;15.30;14.10;;;;;;;-146.72;100.00;64895.28;5086943;28;20440;-75
2022/07/31 07:27:26;;;;;;;15.20;14.00;;;;;;;-146.72;100.00;64895.28;5053442;28;20529;-75
2022/07/31 07:29:53;;;;;;;14.70;13.57;;;;;;;-146.72;100.00;64895.28;5053337;28;20894;-75
2022/07/31 07:32:20;;;;;;;16.27;14.97;;;;;;;-146.72;100.00;64895.28;5086805;28;20464;-75
2022/07/31 07:34:47;;;;;;;14.60;13.50;;;;;;;-146.72;100.00;64895.28;5075196;28;20476;-75
2022/07/31 07:37:44;;;;;;;13.67;12.57;;;;;;;-146.72;100.00;64895.28;5057561;28;20424;-75
2022/07/31 07:40:11;;;;;;;15.30;14.00;;;;;;;-146.72;100.00;64895.28;5069811;28;20555;-75
2022/07/31 07:42:38;;;;;;;15.23;14.07;;;;;;;-146.72;100.00;64895.28;5069836;28;20441;-75
2022/07/31 07:45:06;;;;;;;14.80;13.70;;;;;;;-146.72;100.00;64895.28;5069860;28;20486;-75
2022/07/31 07:47:34;;;;;;;14.10;12.70;;;;;;;-146.72;100.00;64895.28;5069911;28;20996;-75
2022/07/31 07:50:21;;;;;;;15.17;13.97;;;;;;;-146.72;100.00;64895.28;5069752;28;20457;-75
2022/07/31 07:53:30;;;;;;;13.67;12.57;;;;;;;-146.72;100.00;64895.28;5061191;28;20436;-74
2022/07/31 07:56:35;;;;;;;11.90;11.00;;;;;;;-146.72;100.00;64895.28;5009056;28;20522;-75
2022/07/31 07:59:31;;;;;;;13.67;12.40;;;;;;;-146.72;100.00;64895.28;4976927;28;20526;-75
2022/07/31 08:02:18;;;;;;;12.53;11.43;;;;;;;-146.72;100.00;64895.28;5042250;28;20444;-74
2022/07/31 08:04:47;;;;;;;12.87;11.63;;;;;;;-146.72;100.00;64895.28;5069880;28;20439;-75
2022/07/31 08:07:13;;;;;;;10.70;9.80;;;;;;;-146.72;100.00;64895.28;5069175;28;20449;-75
2022/07/31 08:09:40;;;;;;;12.80;11.80;;;;;;;-146.72;100.00;64895.28;5054307;28;20968;-75
2022/07/31 08:12:27;;;;;;;10.23;9.33;;;;;;;-146.72;100.00;64895.28;5087998;28;20986;-75
2022/07/31 08:15:06;;;;;;;10.93;10.03;;;;;;;-146.72;100.00;64895.28;5074946;28;20431;-75
2022/07/31 08:17:51;;;;;;;9.60;8.90;;;;;;;-146.72;100.00;64895.28;5074786;28;20947;-75
2022/07/31 08:20:20;;;;;;;10.63;9.80;;;;;;;-146.72;100.00;64895.28;5052973;28;21023;-75
2022/07/31 08:22:48;;;;;;;11.00;10.10;;;;;;;-146.72;100.00;64895.28;5081107;28;20451;-75
2022/07/31 08:25:15;;;;;;;9.00;8.30;;;;;;;-146.72;100.00;64895.28;5093470;28;20439;-75
2022/07/31 08:27:43;;;;;;;10.80;9.93;;;;;;;-146.72;100.00;64895.28;5065076;28;20972;-74
2022/07/31 08:30:14;;;;;;;9.03;8.33;;;;;;;-146.72;100.00;64895.28;5057006;28;20460;-74
2022/07/31 08:32:41;;;;;;;7.83;7.17;;;;;;;-146.72;100.00;64895.28;5056573;28;20440;-74
2022/07/31 08:35:31;;;;;;;8.93;8.33;;;;;;;-146.72;100.00;64895.28;5080600;28;20444;-75
2022/07/31 08:37:58;;;;;;;9.80;9.00;;;;;;;-146.72;100.00;64895.28;5093196;28;20431;-75
2022/07/31 08:40:37;;;;;;;9.40;8.67;;;;;;;-146.72;100.00;64895.28;5093079;28;20463;-75
2022/07/31 08:43:11;;;;;;;9.10;8.40;;;;;;;-146.72;100.00;64895.28;5078124;28;20849;-75
2022/07/31 08:46:01;;;;;;;8.73;8.10;;;;;;;-146.72;100.00;64895.28;5079190;28;20427;-75
2022/07/31 08:48:36;;;;;;;8.70;7.80;;;;;;;-146.72;100.00;64895.28;5093047;28;20454;-75
2022/07/31 08:51:04;;;;;;;8.90;8.20;;;;;;;-146.72;100.00;64895.28;5092939;28;21005;-75
2022/07/31 08:53:50;;;;;;;8.90;8.30;;;;;;;-146.72;100.00;64895.28;5094518;28;20431;-75
2022/07/31 08:56:19;;;;;;;8.27;7.53;;;;;;;-146.72;100.00;64895.28;5092961;28;20561;-75
2022/07/31 08:58:46;;;;;;;8.43;7.83;;;;;;;-146.72;100.00;64895.28;5076080;28;20432;-75
2022/07/31 09:01:13;;;;;;;7.33;6.60;;;;;;;-146.72;100.00;64895.28;5092775;28;20525;-75
2022/07/31 09:03:41;;;;;;;7.93;7.33;;;;;;;-146.72;100.00;64895.28;5092738;28;20439;-75
2022/07/31 09:06:13;;;;;;;6.90;6.40;;;;;;;-146.72;100.00;64895.28;5092791;28;20435;-75
2022/07/31 09:08:40;;;;;;;7.40;6.90;;;;;;;-146.72;100.00;64895.28;5075874;28;20470;-74
2022/07/31 09:11:12;;;;;;;7.30;6.70;;;;;;;-146.72;100.00;64895.28;5075882;28;20453;-75
2022/07/31 09:13:55;;;;;;;8.53;7.93;;;;;;;-146.72;100.00;64895.28;5092482;28;20488;-75
2022/07/31 09:16:46;;;;;;;7.27;6.63;;;;;;;-146.72;100.00;64895.28;5078153;28;20546;-75
2022/07/31 09:19:13;;;;;;;8.13;7.50;;;;;;;-146.72;100.00;64895.28;5075861;28;20462;-75
2022/07/31 09:22:06;;;;;;;7.37;6.67;;;;;;;-146.72;100.00;64895.28;5092374;28;20447;-75
2022/07/31 09:24:36;;;;;;;7.03;6.33;;;;;;;-146.72;100.00;64895.28;5076114;28;20450;-75
2022/07/31 09:27:08;;;;;;;6.70;6.10;;;;;;;-146.72;100.00;64895.28;5057308;28;20436;-75
2022/07/31 09:29:40;;;;;;;7.10;6.23;;;;;;;-146.72;100.00;64895.28;5068326;28;20476;-75
2022/07/31 09:32:19;;;;;;;6.40;5.63;;;;;;;-146.72;100.00;64895.28;5071988;28;20441;-75
2022/07/31 09:35:09;;;;;;;7.00;6.40;;;;;;;-146.72;100.00;64895.28;5062932;28;20451;-75
2022/07/31 09:37:38;;;;;;;6.30;5.90;;;;;;;-146.72;100.00;64895.28;5071784;28;20534;-75
2022/07/31 09:40:34;;;;;;;6.30;5.80;;;;;;;-146.72;100.00;64895.28;5041478;28;20460;-75
2022/07/31 09:43:16;;;;;;;6.30;5.80;;;;;;;-146.72;100.00;64895.28;5060708;28;20428;-75
2022/07/31 09:45:47;;;;;;;5.83;5.33;;;;;;;-146.72;100.00;64895.28;5073114;28;20779;-75
2022/07/31 09:48:14;;;;;;;7.73;5.80;;;;;;;-146.72;100.00;64895.28;5071709;28;20470;-74
2022/07/31 09:50:56;;;;;;;5.97;5.40;;;;;;;-146.72;100.00;64895.28;5056729;28;20973;-74
2022/07/31 09:53:24;;;;;;;5.70;5.20;;;;;;;-146.72;100.00;64895.28;5071854;28;20452;-75
2022/07/31 09:56:01;;;;;;;5.97;5.57;;;;;;;-146.72;100.00;64895.28;5071740;28;20433;-74
2022/07/31 09:58:28;;;;;;;6.93;5.27;;;;;;;-146.72;100.00;64895.28;5071643;28;20482;-75
2022/07/31 10:00:55;;;;;;;6.47;5.87;;;;;;;-146.72;100.00;64895.28;5070668;28;20514;-75
2022/07/31 10:03:25;;;;;;;5.90;5.33;;;;;;;-146.72;100.00;64895.28;5072548;28;20944;-75
2022/07/31 10:05:54;;;;;;;7.80;4.57;;;;;;;-146.72;100.00;64895.28;5084228;28;20433;-75
2022/07/31 10:08:25;;;;;;;6.43;5.77;;;;;;;-146.72;100.00;64895.28;5071417;28;20460;-74
2022/07/31 10:11:23;;;;;;;7.63;4.93;;;;;;;-146.72;100.00;64895.28;5072596;28;20532;-75
2022/07/31 10:14:01;;;;;;;7.17;5.10;;;;;;;-146.72;100.00;64895.28;5069981;28;20526;-75
2022/07/31 10:16:34;;;;;;;5.70;4.73;;;;;;;-146.72;100.00;64895.28;5095068;28;20439;-75
2022/07/31 10:19:33;;;;;;;5.30;4.90;;;;;;;-146.72;100.00;64895.28;5039415;28;20958;-76
2022/07/31 10:22:34;;;;;;;13.93;4.50;;;;;;;-146.72;100.00;64895.28;5052693;28;20872;-75
2022/07/31 10:25:02;;;;;;;6.93;4.60;;;;;;;-146.72;100.00;64895.28;5061632;28;20527;-76
2022/07/31 10:27:29;;;;;;;4.33;3.73;;;;;;;-146.72;100.00;64895.28;5074968;28;20446;-76
2022/07/31 10:30:01;;;;;;;4.80;4.07;;;;;;;-146.72;100.00;64895.28;5062085;28;20505;-76
2022/07/31 10:32:27;;;;;;;5.10;4.20;;;;;;;-146.72;100.00;64895.28;5077281;28;20471;-75
2022/07/31 10:35:29;;;;;;;4.97;4.33;;;;;;;-146.72;100.00;64895.28;5053298;28;20829;-76
2022/07/31 10:38:47;;;;;;;5.00;4.70;;;;;;;-146.72;100.00;64895.28;5057270;28;20808;-76
2022/07/31 10:41:35;;;;;;;4.40;4.10;;;;;;;-146.72;100.00;64895.28;5068860;28;20406;-76
2022/07/31 10:44:37;;;;;;;4.43;3.87;;;;;;;-146.72;100.00;64895.28;5075607;28;21124;-76
2022/07/31 10:47:18;;;;;;;3.57;3.27;;;;;;;-146.72;100.00;64895.28;5057936;28;20910;-76
2022/07/31 10:49:59;;;;;;;5.10;3.60;;;;;;;-146.72;100.00;64895.28;5079972;28;20476;-76
2022/07/31 10:52:31;;;;;;;3.73;3.53;;;;;;;-146.72;100.00;64895.28;5070750;28;20515;-76
2022/07/31 10:55:18;;;;;;;3.87;3.57;;;;;;;-146.72;100.00;64895.28;5071213;28;20427;-76
2022/07/31 10:58:13;;;;;;;3.00;2.70;;;;;;;-146.72;100.00;64895.28;5082238;28;20505;-76
2022/07/31 11:00:42;;;;;;;4.20;3.80;;;;;;;-146.72;100.00;64895.28;5086849;28;20459;-76
2022/07/31 11:03:21;;;;;;;4.13;3.83;;;;;;;-146.72;100.00;64895.28;5085947;28;20436;-76
2022/07/31 11:06:08;;;;;;;7.07;3.57;;;;;;;-146.72;100.00;64895.28;5040609;28;20798;-76
2022/07/31 11:08:54;;;;;;;6.30;3.83;;;;;;;-146.72;100.00;64895.28;5089754;28;20830;-76
2022/07/31 11:11:39;;;;;;;5.40;3.80;;;;;;;-146.72;100.00;64895.28;5077140;28;20408;-76
2022/07/31 11:14:39;;;;;;;3.53;3.23;;;;;;;-146.72;100.00;64895.28;5080378;28;20412;-76
2022/07/31 11:17:35;;;;;;;4.07;3.67;;;;;;;-146.72;100.00;64895.28;5063476;28;20439;-76
2022/07/31 11:20:28;;;;;;;3.97;3.67;;;;;;;-146.72;100.00;64895.28;5064629;28;20550;-76
2022/07/31 11:23:02;;;;;;;4.00;3.80;;;;;;;-146.72;100.00;64895.28;5072276;28;20474;-76
2022/07/31 11:25:33;;;;;;;3.70;3.47;;;;;;;-146.72;100.00;64895.28;5077755;28;20483;-76
2022/07/31 11:28:17;;;;;;;8.23;4.87;;;;;;;-146.72;100.00;64895.28;5056519;28;20441;-76
2022/07/31 11:30:54;;;;;;;7.33;3.93;;;;;;;-146.72;100.00;64895.28;5057733;28;20498;-76